createdAt,value
2019-03-26T00:01:53.258Z,2.40
2019-03-26T00:04:24.330Z,2.60
2019-03-26T00:06:55.513Z,2.70
2019-03-26T00:09:26.509Z,2.57
2019-03-26T00:11:57.498Z,2.73
2019-03-26T00:14:28.366Z,2.90
2019-03-26T00:16:59.381Z,2.50
2019-03-26T00:19:30.529Z,3.20
2019-03-26T00:22:01.547Z,2.90
2019-03-26T00:24:32.476Z,3.20
2019-03-26T00:27:03.692Z,2.77
2019-03-26T00:29:34.677Z,2.47
2019-03-26T00:32:05.706Z,2.60
2019-03-26T00:34:36.769Z,2.40
2019-03-26T00:37:07.966Z,2.90
2019-03-26T00:39:39.059Z,3.60
2019-03-26T00:42:10.192Z,2.67
2019-03-26T00:44:41.073Z,2.70
2019-03-26T00:47:12.191Z,3.07
2019-03-26T00:49:43.063Z,2.93
2019-03-26T00:52:14.459Z,2.90
2019-03-26T00:54:45.468Z,2.53
2019-03-26T00:57:16.343Z,2.97
2019-03-26T00:59:47.287Z,3.00
2019-03-26T01:02:18.321Z,3.17
2019-03-26T01:04:49.341Z,3.30
2019-03-26T01:07:20.473Z,2.80
2019-03-26T01:09:51.773Z,3.10
2019-03-26T01:12:22.910Z,3.53
2019-03-26T01:14:53.946Z,3.87
2019-03-26T01:17:25.035Z,3.23
2019-03-26T01:19:56.129Z,3.30
2019-03-26T01:22:27.133Z,3.23
2019-03-26T01:24:58.021Z,3.00
2019-03-26T01:27:29.087Z,3.13
2019-03-26T01:30:00.332Z,3.30
2019-03-26T01:32:31.259Z,3.37
2019-03-26T01:35:02.266Z,3.20
2019-03-26T01:37:33.242Z,3.27
2019-03-26T01:40:05.502Z,3.50
2019-03-26T01:42:36.529Z,3.77
2019-03-26T01:45:08.267Z,3.40
2019-03-26T01:47:39.245Z,3.70
2019-03-26T01:50:10.561Z,3.27
2019-03-26T01:52:41.539Z,3.87
2019-03-26T01:55:12.516Z,3.63
2019-03-26T01:57:43.701Z,4.10
2019-03-26T02:00:15.347Z,4.20
2019-03-26T02:02:46.383Z,4.23
2019-03-26T02:05:17.538Z,4.83
2019-03-26T02:07:48.484Z,4.37
2019-03-26T02:10:19.439Z,4.33
2019-03-26T02:12:50.439Z,4.37
2019-03-26T02:15:29.699Z,4.17
2019-03-26T02:18:00.750Z,4.73
2019-03-26T02:20:31.916Z,3.97
2019-03-26T02:23:02.960Z,4.70
2019-03-26T02:25:33.927Z,4.13
2019-03-26T02:28:04.883Z,4.10
2019-03-26T02:30:35.910Z,4.23
2019-03-26T02:33:06.972Z,4.50
2019-03-26T02:35:37.928Z,4.53
2019-03-26T02:38:08.972Z,4.47
2019-03-26T02:40:39.946Z,4.17
2019-03-26T02:43:10.855Z,4.67
2019-03-26T02:45:41.937Z,4.33
2019-03-26T02:48:12.882Z,4.67
2019-03-26T02:50:44.057Z,4.27
2019-03-26T02:53:15.041Z,4.33
2019-03-26T02:55:46.133Z,4.17
2019-03-26T02:58:20.611Z,4.20
2019-03-26T03:00:51.713Z,4.27
2019-03-26T03:03:24.229Z,4.20
2019-03-26T03:05:55.325Z,4.70
2019-03-26T03:08:26.351Z,5.07
2019-03-26T03:10:57.313Z,5.33
2019-03-26T03:13:28.265Z,5.60
2019-03-26T03:15:59.287Z,4.90
2019-03-26T03:18:30.273Z,5.27
2019-03-26T03:21:01.239Z,5.70
2019-03-26T03:23:32.326Z,5.77
2019-03-26T03:26:03.235Z,5.60
2019-03-26T03:28:34.370Z,4.63
2019-03-26T03:31:05.371Z,5.00
2019-03-26T03:33:36.437Z,5.20
2019-03-26T03:36:07.381Z,4.90
2019-03-26T03:38:41.371Z,5.60
2019-03-26T03:41:11.037Z,5.13
2019-03-26T03:43:42.083Z,4.47
2019-03-26T03:46:13.604Z,4.93
2019-03-26T03:48:45.295Z,5.33
2019-03-26T03:51:19.293Z,4.70
2019-03-26T03:53:50.316Z,5.13
2019-03-26T03:56:24.704Z,4.87
2019-03-26T03:58:57.869Z,4.90
2019-03-26T04:01:28.978Z,4.60
2019-03-26T04:03:59.925Z,5.17
2019-03-26T04:06:30.981Z,5.43
2019-03-26T04:09:01.868Z,6.13
2019-03-26T04:11:32.844Z,6.07
2019-03-26T04:14:03.785Z,5.80
2019-03-26T04:16:34.722Z,5.30
2019-03-26T04:19:05.752Z,5.40
2019-03-26T04:21:36.797Z,5.40
2019-03-26T04:24:07.767Z,5.33
2019-03-26T04:26:38.673Z,4.97
2019-03-26T04:29:09.635Z,5.90
2019-03-26T04:31:40.765Z,5.20
2019-03-26T04:34:11.745Z,4.90
2019-03-26T04:36:42.912Z,4.87
2019-03-26T04:39:13.870Z,4.43
2019-03-26T04:41:45.000Z,4.60
2019-03-26T04:44:16.028Z,4.80
2019-03-26T04:46:46.951Z,4.67
2019-03-26T04:49:17.845Z,4.97
2019-03-26T04:51:48.800Z,4.23
2019-03-26T04:54:19.824Z,4.93
2019-03-26T04:56:50.901Z,5.40
2019-03-26T04:59:21.852Z,4.97
2019-03-26T05:01:52.797Z,4.70
2019-03-26T05:04:23.684Z,4.50
2019-03-26T05:06:54.899Z,4.57
2019-03-26T05:09:25.807Z,5.30
2019-03-26T05:11:56.817Z,5.53
2019-03-26T05:14:27.918Z,5.43
2019-03-26T05:16:58.799Z,5.73
2019-03-26T05:19:30.192Z,5.93
2019-03-26T05:22:01.353Z,6.87
2019-03-26T05:24:32.290Z,6.70
2019-03-26T05:27:03.323Z,6.47
2019-03-26T05:29:34.302Z,6.63
2019-03-26T05:32:05.355Z,6.37
2019-03-26T05:34:36.407Z,6.13
2019-03-26T05:37:07.639Z,6.10
2019-03-26T05:39:38.679Z,6.30
2019-03-26T05:42:09.785Z,6.47
2019-03-26T05:44:40.773Z,6.10
2019-03-26T05:47:11.935Z,6.23
2019-03-26T05:49:42.963Z,6.90
2019-03-26T05:52:14.642Z,6.47
2019-03-26T05:54:45.625Z,7.23
2019-03-26T05:57:16.908Z,7.60
2019-03-26T05:59:48.403Z,6.90
2019-03-26T06:02:19.540Z,7.30
2019-03-26T06:04:50.438Z,6.53
2019-03-26T06:07:22.236Z,6.10
2019-03-26T06:09:53.191Z,7.03
2019-03-26T06:12:25.865Z,6.70
2019-03-26T06:14:58.385Z,6.60
2019-03-26T06:17:31.367Z,6.87
2019-03-26T06:20:03.372Z,6.00
2019-03-26T06:22:34.671Z,6.17
2019-03-26T06:25:07.305Z,6.17
2019-03-26T06:27:38.376Z,6.30
2019-03-26T06:30:10.568Z,6.07
2019-03-26T06:32:41.636Z,5.50
2019-03-26T06:35:12.736Z,5.53
2019-03-26T06:37:43.696Z,5.60
2019-03-26T06:40:15.696Z,5.83
2019-03-26T06:42:46.670Z,5.03
2019-03-26T06:45:17.805Z,5.67
2019-03-26T06:47:48.954Z,5.80
2019-03-26T06:50:20.672Z,5.90
2019-03-26T06:52:51.656Z,5.80
2019-03-26T06:55:22.521Z,6.03
2019-03-26T06:57:53.432Z,5.70
2019-03-26T07:00:31.887Z,5.63
2019-03-26T07:03:04.679Z,5.77
2019-03-26T07:05:35.752Z,5.37
2019-03-26T07:08:07.112Z,5.80
2019-03-26T07:10:38.015Z,5.77
2019-03-26T07:13:09.018Z,5.73
2019-03-26T07:15:40.128Z,6.20
2019-03-26T07:18:11.275Z,6.00
2019-03-26T07:20:42.425Z,6.03
2019-03-26T07:23:13.430Z,6.13
2019-03-26T07:25:44.400Z,6.30
2019-03-26T07:28:15.432Z,6.33
2019-03-26T07:30:48.062Z,6.57
2019-03-26T07:33:19.168Z,5.73
2019-03-26T07:35:50.530Z,6.23
2019-03-26T07:38:21.409Z,6.20
2019-03-26T07:40:52.464Z,6.90
2019-03-26T07:43:23.446Z,6.77
2019-03-26T07:45:54.518Z,6.60
2019-03-26T07:48:25.616Z,6.87
2019-03-26T07:50:56.740Z,7.53
2019-03-26T07:53:27.757Z,7.53
2019-03-26T07:55:58.686Z,6.00
2019-03-26T07:58:29.666Z,6.40
2019-03-26T08:01:00.810Z,6.87
2019-03-26T08:03:31.746Z,7.13
2019-03-26T08:06:06.198Z,7.47
2019-03-26T08:08:37.123Z,7.23
2019-03-26T08:11:08.002Z,6.40
2019-03-26T08:13:42.113Z,7.20
2019-03-26T08:16:13.168Z,6.50
2019-03-26T08:18:44.239Z,6.93
2019-03-26T08:21:15.174Z,5.70
2019-03-26T08:23:46.329Z,6.57
2019-03-26T08:26:17.200Z,6.50
2019-03-26T08:28:48.190Z,5.80
2019-03-26T08:31:19.224Z,6.40
2019-03-26T08:33:50.203Z,6.53
2019-03-26T08:36:21.476Z,6.87
2019-03-26T08:38:52.387Z,7.00
2019-03-26T08:41:23.360Z,6.00
2019-03-26T08:43:54.450Z,6.23
2019-03-26T08:46:25.382Z,6.40
2019-03-26T08:48:56.370Z,8.17
2019-03-26T08:51:27.826Z,6.30
2019-03-26T08:53:58.751Z,5.77
2019-03-26T08:56:29.755Z,6.37
2019-03-26T08:59:00.757Z,5.90
2019-03-26T09:01:32.164Z,5.47
2019-03-26T09:04:03.227Z,6.20
2019-03-26T09:06:34.159Z,5.70
2019-03-26T09:09:07.924Z,5.17
2019-03-26T09:11:38.972Z,4.77
2019-03-26T09:14:09.921Z,4.97
2019-03-26T09:16:40.852Z,4.63
2019-03-26T09:19:11.936Z,4.27
2019-03-26T09:21:42.988Z,3.10
2019-03-26T09:24:14.069Z,3.23
2019-03-26T09:26:45.076Z,3.10
2019-03-26T09:29:16.107Z,2.80
2019-03-26T09:31:47.385Z,2.77
2019-03-26T09:34:18.312Z,2.60
2019-03-26T09:36:49.337Z,3.20
2019-03-26T09:39:20.195Z,2.80
2019-03-26T09:41:51.286Z,3.60
2019-03-26T09:44:22.239Z,3.33
2019-03-26T09:46:53.298Z,3.33
2019-03-26T09:49:24.320Z,3.00
2019-03-26T09:51:55.356Z,2.87
2019-03-26T09:54:26.318Z,3.00
2019-03-26T09:56:57.380Z,3.00
2019-03-26T09:59:28.756Z,3.03
2019-03-26T10:01:59.800Z,2.67
2019-03-26T10:04:30.680Z,4.50
2019-03-26T10:07:01.806Z,2.60
2019-03-26T10:09:32.768Z,3.23
2019-03-26T10:12:03.844Z,2.67
2019-03-26T10:14:34.860Z,3.03
2019-03-26T10:17:05.974Z,4.33
2019-03-26T10:19:36.881Z,2.90
2019-03-26T10:22:07.920Z,3.27
2019-03-26T10:24:38.844Z,2.70
2019-03-26T10:27:09.829Z,3.23
2019-03-26T10:29:40.834Z,3.10
2019-03-26T10:32:11.774Z,2.87
2019-03-26T10:34:42.822Z,3.40
2019-03-26T10:37:13.961Z,3.70
2019-03-26T10:39:45.007Z,2.83
2019-03-26T10:42:16.059Z,3.10
2019-03-26T10:44:47.002Z,3.07
2019-03-26T10:47:18.039Z,3.87
2019-03-26T10:49:48.919Z,3.07
2019-03-26T10:52:20.140Z,3.70
2019-03-26T10:54:51.109Z,3.30
2019-03-26T10:57:22.449Z,3.37
2019-03-26T10:59:53.491Z,4.00
2019-03-26T11:02:24.448Z,3.40
2019-03-26T11:04:55.415Z,3.60
2019-03-26T11:07:26.503Z,3.73
2019-03-26T11:09:57.514Z,2.80
2019-03-26T11:12:28.513Z,3.13
2019-03-26T11:14:59.609Z,3.40
2019-03-26T11:17:30.643Z,3.30
2019-03-26T11:20:01.548Z,3.13
2019-03-26T11:22:32.548Z,3.70
2019-03-26T11:25:05.565Z,3.43
2019-03-26T11:27:36.545Z,3.87
2019-03-26T11:30:09.069Z,3.50
2019-03-26T11:32:40.079Z,3.40
2019-03-26T11:35:11.237Z,3.70
2019-03-26T11:37:42.381Z,3.57
2019-03-26T11:40:14.203Z,3.50
2019-03-26T11:42:45.184Z,3.40
2019-03-26T11:45:16.705Z,3.40
2019-03-26T11:47:47.609Z,2.90
2019-03-26T11:50:19.225Z,3.00
2019-03-26T11:52:50.272Z,2.80
2019-03-26T11:55:21.967Z,2.50
2019-03-26T11:57:53.121Z,3.00
2019-03-26T12:00:31.965Z,3.00
2019-03-26T12:03:03.092Z,2.77
2019-03-26T12:05:34.125Z,2.87
2019-03-26T12:08:05.190Z,3.23
2019-03-26T12:10:36.269Z,2.50
2019-03-26T12:13:07.589Z,2.83
2019-03-26T12:15:38.631Z,2.60
2019-03-26T12:18:15.243Z,2.67
2019-03-26T12:20:46.156Z,2.77
2019-03-26T12:23:17.151Z,2.87
2019-03-26T12:25:48.113Z,2.60
2019-03-26T12:28:19.463Z,2.47
2019-03-26T12:30:51.201Z,2.67
2019-03-26T12:33:22.585Z,2.27
2019-03-26T12:35:53.613Z,4.20
2019-03-26T12:38:24.590Z,2.70
2019-03-26T12:40:55.653Z,3.27
2019-03-26T12:43:26.624Z,2.07
2019-03-26T12:45:57.580Z,2.57
2019-03-26T12:48:28.617Z,3.53
2019-03-26T12:50:59.713Z,2.10
2019-03-26T12:53:32.724Z,2.63
2019-03-26T12:56:04.324Z,3.50
2019-03-26T12:58:36.651Z,2.63
2019-03-26T13:01:07.834Z,2.07
2019-03-26T13:04:11.638Z,2.53
2019-03-26T13:06:31.360Z,3.27
2019-03-26T13:09:02.419Z,2.50
2019-03-26T13:11:33.463Z,2.07
2019-03-26T13:14:04.440Z,2.37
2019-03-26T13:16:35.454Z,2.50
2019-03-26T13:19:06.524Z,2.10
2019-03-26T13:21:37.792Z,2.57
2019-03-26T13:24:11.325Z,2.30
2019-03-26T13:26:41.450Z,2.00
2019-03-26T13:29:12.453Z,2.10
2019-03-26T13:31:43.456Z,2.10
2019-03-26T13:34:14.420Z,2.43
2019-03-26T13:36:45.706Z,2.00
2019-03-26T13:39:16.728Z,2.30
2019-03-26T13:41:47.870Z,1.90
2019-03-26T13:44:19.046Z,2.40
2019-03-26T13:46:50.068Z,2.20
2019-03-26T13:49:21.062Z,2.80
2019-03-26T13:51:52.086Z,2.70
2019-03-26T13:54:23.119Z,2.50
2019-03-26T13:56:54.135Z,2.70
2019-03-26T13:59:25.179Z,2.40
2019-03-26T14:01:56.191Z,1.97
2019-03-26T14:04:27.413Z,2.13
2019-03-26T14:06:58.486Z,2.60
2019-03-26T14:09:29.894Z,2.10
2019-03-26T14:12:00.954Z,2.33
2019-03-26T14:14:32.068Z,2.50
2019-03-26T14:17:05.568Z,2.40
2019-03-26T14:19:35.704Z,1.90
2019-03-26T14:22:06.680Z,2.27
2019-03-26T14:24:37.728Z,2.10
2019-03-26T14:27:08.751Z,1.80
2019-03-26T14:29:39.776Z,2.17
2019-03-26T14:32:11.003Z,3.07
2019-03-26T14:34:42.095Z,3.67
2019-03-26T14:37:13.104Z,2.57
2019-03-26T14:39:44.071Z,2.70
2019-03-26T14:42:15.011Z,2.63
2019-03-26T14:44:45.999Z,2.60
2019-03-26T14:47:17.344Z,2.50
2019-03-26T14:49:48.370Z,3.00
2019-03-26T14:52:19.478Z,2.30
2019-03-26T14:54:50.498Z,2.40
2019-03-26T14:57:21.555Z,2.40
2019-03-26T14:59:52.429Z,2.60
2019-03-26T15:02:23.302Z,2.40
2019-03-26T15:04:54.238Z,3.10
2019-03-26T15:07:25.217Z,3.03
2019-03-26T15:09:56.390Z,2.80
2019-03-26T15:12:27.447Z,2.80
2019-03-26T15:14:58.787Z,2.33
2019-03-26T15:17:29.798Z,2.83
2019-03-26T15:20:00.743Z,3.00
2019-03-26T15:22:31.740Z,2.87
2019-03-26T15:25:02.741Z,3.30
2019-03-26T15:27:33.753Z,2.73
2019-03-26T15:30:09.811Z,3.10
2019-03-26T15:32:40.708Z,2.87
2019-03-26T15:35:11.903Z,3.87
2019-03-26T15:37:42.765Z,3.37
2019-03-26T15:40:14.211Z,3.50
2019-03-26T15:42:45.125Z,2.80
2019-03-26T15:45:16.613Z,4.93
2019-03-26T15:47:47.679Z,3.33
2019-03-26T15:50:24.169Z,5.57
2019-03-26T15:52:55.459Z,3.90
2019-03-26T15:55:26.791Z,4.90
2019-03-26T15:57:59.876Z,3.87
2019-03-26T16:00:30.977Z,4.67
2019-03-26T16:03:02.299Z,5.00
2019-03-26T16:05:33.229Z,4.27
2019-03-26T16:08:04.373Z,5.47
2019-03-26T16:10:35.342Z,6.40
2019-03-26T16:13:06.685Z,4.30
2019-03-26T16:15:44.117Z,3.73
2019-03-26T16:18:10.763Z,3.67
2019-03-26T16:20:42.215Z,4.03
2019-03-26T16:23:13.093Z,4.03
2019-03-26T16:25:44.115Z,3.70
2019-03-26T16:28:18.083Z,3.83
2019-03-26T16:30:54.159Z,4.00
2019-03-26T16:33:25.143Z,4.40
2019-03-26T16:35:56.253Z,4.53
2019-03-26T16:38:27.333Z,6.10
2019-03-26T16:41:00.490Z,3.83
2019-03-26T16:43:31.059Z,3.97
2019-03-26T16:46:01.913Z,4.23
2019-03-26T16:48:32.807Z,4.67
2019-03-26T16:51:04.426Z,4.17
2019-03-26T16:53:54.831Z,3.73
2019-03-26T16:56:25.886Z,4.20
2019-03-26T16:58:56.957Z,4.73
2019-03-26T17:01:28.385Z,4.90
2019-03-26T17:03:59.650Z,4.50
2019-03-26T17:06:30.797Z,5.50
2019-03-26T17:09:02.454Z,5.13
2019-03-26T17:11:33.825Z,4.17
2019-03-26T17:14:05.382Z,4.80
2019-03-26T17:16:36.623Z,4.97
2019-03-26T17:19:25.661Z,4.63
2019-03-26T17:21:56.784Z,4.80
2019-03-26T17:24:27.845Z,4.83
2019-03-26T17:26:59.185Z,5.07
2019-03-26T17:29:30.302Z,4.97
2019-03-26T17:32:02.414Z,5.60
2019-03-26T17:34:33.578Z,6.43
2019-03-26T17:37:04.829Z,6.93
2019-03-26T17:39:36.184Z,5.30
2019-03-26T17:42:17.153Z,5.67
2019-03-26T17:44:39.996Z,5.73
2019-03-26T17:47:11.191Z,4.90
2019-03-26T17:49:42.813Z,4.80
2019-03-26T17:52:13.884Z,6.33
2019-03-26T17:54:44.930Z,6.57
2019-03-26T17:57:16.007Z,7.40
2019-03-26T17:59:47.133Z,14.50
2019-03-26T18:02:18.221Z,43.23
2019-03-26T18:04:49.299Z,9.50
2019-03-26T18:07:20.306Z,4.83
2019-03-26T18:09:51.564Z,4.43
2019-03-26T18:12:30.834Z,4.87
2019-03-26T18:14:56.329Z,4.47
2019-03-26T18:17:27.264Z,4.60
2019-03-26T18:19:58.309Z,4.70
2019-03-26T18:22:29.338Z,4.83
2019-03-26T18:25:00.456Z,5.43
2019-03-26T18:27:33.133Z,4.70
2019-03-26T18:30:05.703Z,6.70
2019-03-26T18:32:36.749Z,5.97
2019-03-26T18:35:07.885Z,4.87
2019-03-26T18:37:38.966Z,4.90
2019-03-26T18:40:10.016Z,4.53
2019-03-26T18:42:44.156Z,5.00
2019-03-26T18:45:14.415Z,5.00
2019-03-26T18:47:45.494Z,5.10
2019-03-26T18:50:17.029Z,5.10
2019-03-26T18:53:28.300Z,5.20
2019-03-26T18:56:15.001Z,4.67
2019-03-26T18:58:46.599Z,5.20
2019-03-26T19:01:17.783Z,5.17
2019-03-26T19:03:48.767Z,5.30
2019-03-26T19:06:19.919Z,5.37
2019-03-26T19:08:51.325Z,5.30
2019-03-26T19:11:22.587Z,5.30
2019-03-26T19:13:53.646Z,4.80
2019-03-26T19:16:26.787Z,4.97
2019-03-26T19:18:57.897Z,5.27
2019-03-26T19:21:29.041Z,4.73
2019-03-26T19:24:04.590Z,6.00
2019-03-26T19:26:33.875Z,5.63
2019-03-26T19:29:05.021Z,4.97
2019-03-26T19:31:36.061Z,5.40
2019-03-26T19:34:07.540Z,5.80
2019-03-26T19:36:38.778Z,6.23
2019-03-26T19:39:09.927Z,5.73
2019-03-26T19:41:41.196Z,5.63
2019-03-26T19:44:12.444Z,5.87
2019-03-26T19:46:44.997Z,5.37
2019-03-26T19:49:16.103Z,5.30
2019-03-26T19:51:47.305Z,5.90
2019-03-26T19:54:18.468Z,6.10
2019-03-26T19:56:49.542Z,6.20
2019-03-26T19:59:20.731Z,5.47
2019-03-26T20:01:51.750Z,6.33
2019-03-26T20:04:22.858Z,6.10
2019-03-26T20:06:53.926Z,7.00
2019-03-26T20:09:25.256Z,6.57
2019-03-26T20:11:56.781Z,6.60
2019-03-26T20:14:27.966Z,7.03
2019-03-26T20:16:59.013Z,6.87
2019-03-26T20:19:30.139Z,6.53
2019-03-26T20:22:01.187Z,7.10
2019-03-26T20:24:32.071Z,6.90
2019-03-26T20:27:03.589Z,6.30
2019-03-26T20:29:34.530Z,7.47
2019-03-26T20:32:05.569Z,7.90
2019-03-26T20:34:36.695Z,7.87
2019-03-26T20:37:16.179Z,8.13
2019-03-26T20:39:48.753Z,7.60
2019-03-26T20:42:19.816Z,7.70
2019-03-26T20:44:50.889Z,7.73
2019-03-26T20:47:22.046Z,7.60
2019-03-26T20:49:56.005Z,8.87
2019-03-26T20:52:28.981Z,8.47
2019-03-26T20:55:00.482Z,8.80
2019-03-26T20:57:34.303Z,9.10
2019-03-26T21:00:07.529Z,9.30
2019-03-26T21:02:38.483Z,8.90
2019-03-26T21:05:12.108Z,9.00
2019-03-26T21:07:43.089Z,9.43
2019-03-26T21:10:14.149Z,9.90
2019-03-26T21:12:45.253Z,9.80
2019-03-26T21:15:18.792Z,10.57
2019-03-26T21:17:49.836Z,9.97
2019-03-26T21:20:20.927Z,10.90
2019-03-26T21:22:51.925Z,9.90
2019-03-26T21:25:23.114Z,10.33
2019-03-26T21:27:54.257Z,10.47
2019-03-26T21:30:25.414Z,11.90
2019-03-26T21:32:56.482Z,10.87
2019-03-26T21:35:29.064Z,11.30
2019-03-26T21:38:00.254Z,11.07
2019-03-26T21:40:31.308Z,10.30
2019-03-26T21:43:02.457Z,10.00
2019-03-26T21:45:36.183Z,11.13
2019-03-26T21:48:07.955Z,10.23
2019-03-26T21:50:38.942Z,11.00
2019-03-26T21:53:09.918Z,10.70
2019-03-26T21:55:40.977Z,10.30
2019-03-26T21:58:11.990Z,10.20
2019-03-26T22:00:44.424Z,10.17
2019-03-26T22:03:15.411Z,11.23
2019-03-26T22:05:47.892Z,9.97
2019-03-26T22:08:19.066Z,10.73
2019-03-26T22:10:50.104Z,10.00
2019-03-26T22:13:21.202Z,10.70
2019-03-26T22:15:52.159Z,11.70
2019-03-26T22:18:23.045Z,10.80
2019-03-26T22:20:54.120Z,11.27
2019-03-26T22:23:25.364Z,10.70
2019-03-26T22:25:56.406Z,11.37
2019-03-26T22:28:28.964Z,11.13
2019-03-26T22:31:00.092Z,12.07
2019-03-26T22:33:31.001Z,10.93
2019-03-26T22:36:02.040Z,10.87
2019-03-26T22:38:37.495Z,11.40
2019-03-26T22:41:11.118Z,11.10
2019-03-26T22:43:41.370Z,10.97
2019-03-26T22:46:12.406Z,11.20
2019-03-26T22:48:43.417Z,11.90
2019-03-26T22:51:14.715Z,12.83
2019-03-26T22:53:46.007Z,12.03
2019-03-26T22:56:17.248Z,12.23
2019-03-26T22:58:48.291Z,12.27
2019-03-26T23:01:19.524Z,12.17
2019-03-26T23:03:50.686Z,12.10
2019-03-26T23:06:21.785Z,12.97
2019-03-26T23:08:52.870Z,12.00
2019-03-26T23:11:23.931Z,13.03
2019-03-26T23:13:55.030Z,11.77
2019-03-26T23:16:26.151Z,12.60
2019-03-26T23:18:57.174Z,14.00
2019-03-26T23:21:28.219Z,14.50
2019-03-26T23:23:59.179Z,13.50
2019-03-26T23:26:30.182Z,13.83
2019-03-26T23:29:01.132Z,13.70
2019-03-26T23:31:32.225Z,13.23
2019-03-26T23:34:03.261Z,13.57
2019-03-26T23:36:34.290Z,13.63
2019-03-26T23:39:07.071Z,13.87
2019-03-26T23:41:39.690Z,12.93
2019-03-26T23:44:11.220Z,13.90
2019-03-26T23:46:42.230Z,14.00
2019-03-26T23:49:13.153Z,14.60
2019-03-26T23:51:44.240Z,13.93
2019-03-26T23:54:15.537Z,13.87
2019-03-26T23:56:46.589Z,13.67
2019-03-26T23:59:17.523Z,14.07
